Briefing drone pour Pleaux

Rechercher une autre localisation

Conditions de vol :


Nous sommes le : Dimanche 28 février 2021
Il est 00:07 UTC (01:07 LT)

Lever de soleil : 06:03 UTC (07:03 LT)
Coucher de soleil : 18:03 UTC (19:03 LT)

Météo

L'essentiel des conditions de vol

VIGILANCE MÉTÉO FRANCE - Cantal (15)
Pas de vigilances particulieres
CARTE TEMSI
CARTES DES FRONTS
METAR de LFLW
LFLW 272330Z AUTO 10009KT CAVOK 05/00 Q1025

Date d'émission: 27/02/2021
Heure d'émission: 23:30 UTC
Vent: 100° pour 9 KT (17 km/h)
Visibilité horizontale: > 10 km
Plafond : Plafond et visibilité OK (CAVOK)
Température: 5 °C
Point de rosée: 0 °C
Humidité: 70%
Pression (QNH): 1025 hPa
Prévision 24h pour Aurillac (18 km)
Vent : 82° pour 2 KT (7 km/h)
Temperature Maxi: 4 °C
Temperature Min: 4 °C
Humidité : 81%
Condition : Ciel dégagé



Warning: count(): Parameter must be an array or an object that implements Countable in /homepages/6/d509196549/htdocs/droneoxygene/briefing.php on line 743
WEBCAM POUR PLEAUX

Réglementation

Voler en sécurité

CARTES AERONAUTIQUE 1/500.000
CARTES VAC (LFLW)
SUP AIP




Chargement des AIP...
NOTAM (PLEAUX + Terrain à proximité / FIR )




Chargement des NOTAMS...
CONTACT PREFECTURE 15


Avertissement : Les données mises à disposition sont indicatives. Oxygène Drone ne pourra être tenu responsable de dégâts causés aux biens et aux personnes.